createdAt,value
2018-11-27T00:00:19.506Z,46.48
2018-11-27T00:01:23.117Z,43.75
2018-11-27T00:02:26.839Z,43.98
2018-11-27T00:03:35.920Z,48.20
2018-11-27T00:04:39.518Z,43.92
2018-11-27T00:05:43.161Z,47.55
2018-11-27T00:06:48.781Z,50.78
2018-11-27T00:07:52.428Z,51.90
2018-11-27T00:08:56.136Z,45.65
2018-11-27T00:09:59.763Z,44.38
2018-11-27T00:11:03.389Z,44.83
2018-11-27T00:12:07.017Z,51.85
2018-11-27T00:13:10.670Z,50.48
2018-11-27T00:14:14.358Z,44.58
2018-11-27T00:15:18.105Z,44.38
2018-11-27T00:16:21.734Z,53.52
2018-11-27T00:17:25.512Z,43.35
2018-11-27T00:18:29.189Z,47.45
2018-11-27T00:19:32.818Z,47.83
2018-11-27T00:20:36.663Z,45.23
2018-11-27T00:21:40.286Z,50.20
2018-11-27T00:22:43.925Z,48.35
2018-11-27T00:23:47.568Z,44.90
2018-11-27T00:24:51.204Z,43.30
2018-11-27T00:25:54.857Z,45.58
2018-11-27T00:26:58.488Z,45.78
2018-11-27T00:28:02.234Z,47.45
2018-11-27T00:29:05.920Z,52.10
2018-11-27T00:30:12.530Z,45.85
2018-11-27T00:31:16.273Z,43.25
2018-11-27T00:32:19.892Z,44.80
2018-11-27T00:33:23.567Z,46.75
2018-11-27T00:34:27.210Z,49.80
2018-11-27T00:35:32.135Z,46.18
2018-11-27T00:36:35.797Z,48.13
2018-11-27T00:37:39.503Z,51.20
2018-11-27T00:38:43.140Z,43.02
2018-11-27T00:39:46.789Z,42.48
2018-11-27T00:40:50.463Z,49.40
2018-11-27T00:41:54.078Z,46.80
2018-11-27T00:42:57.764Z,50.50
2018-11-27T00:44:01.427Z,49.88
2018-11-27T00:45:07.129Z,45.00
2018-11-27T00:46:10.778Z,49.77
2018-11-27T00:47:14.389Z,48.23
2018-11-27T00:48:18.045Z,55.15
2018-11-27T00:49:21.650Z,51.85
2018-11-27T00:50:25.354Z,51.65
2018-11-27T00:51:29.000Z,51.10
2018-11-27T00:52:32.604Z,48.25
2018-11-27T00:53:36.221Z,50.83
2018-11-27T00:54:39.856Z,47.53
2018-11-27T00:55:43.537Z,48.00
2018-11-27T00:56:47.145Z,49.53
2018-11-27T00:57:52.180Z,49.48
2018-11-27T00:58:55.796Z,45.25
2018-11-27T00:59:59.374Z,50.17
2018-11-27T01:01:03.013Z,46.48
2018-11-27T01:02:06.638Z,46.80
2018-11-27T01:03:10.290Z,46.65
2018-11-27T01:04:13.874Z,54.85
2018-11-27T01:05:18.829Z,44.63
2018-11-27T01:06:22.459Z,42.43
2018-11-27T01:07:26.107Z,43.45
2018-11-27T01:08:29.758Z,49.80
2018-11-27T01:09:33.400Z,51.33
2018-11-27T01:10:37.027Z,50.28
2018-11-27T01:11:40.651Z,48.05
2018-11-27T01:12:44.311Z,42.13
2018-11-27T01:13:47.965Z,46.50
2018-11-27T01:14:51.620Z,48.05
2018-11-27T01:15:55.295Z,49.85
2018-11-27T01:16:58.944Z,46.45
2018-11-27T01:18:02.644Z,50.15
2018-11-27T01:19:06.291Z,52.35
2018-11-27T01:20:12.418Z,49.20
2018-11-27T01:21:16.056Z,47.40
2018-11-27T01:22:19.706Z,51.75
2018-11-27T01:23:23.374Z,49.10
2018-11-27T01:24:27.140Z,48.40
2018-11-27T01:25:30.795Z,53.52
2018-11-27T01:26:34.413Z,49.33
2018-11-27T01:27:38.046Z,44.23
2018-11-27T01:28:41.701Z,50.40
2018-11-27T01:29:45.314Z,47.98
2018-11-27T01:30:49.039Z,53.60
2018-11-27T01:31:52.668Z,48.10
2018-11-27T01:32:56.290Z,49.67
2018-11-27T01:33:59.916Z,54.13
2018-11-27T01:35:03.602Z,50.95
2018-11-27T01:36:07.208Z,50.85
2018-11-27T01:37:10.862Z,48.65
2018-11-27T01:38:14.569Z,42.60
2018-11-27T01:39:18.205Z,48.55
2018-11-27T01:40:22.861Z,48.05
2018-11-27T01:41:26.479Z,48.58
2018-11-27T01:42:30.223Z,47.62
2018-11-27T01:43:34.081Z,51.37
2018-11-27T01:44:37.728Z,50.92
2018-11-27T01:45:41.489Z,51.30
2018-11-27T01:46:45.090Z,47.90
2018-11-27T01:47:48.842Z,50.05
2018-11-27T01:48:52.807Z,45.83
2018-11-27T01:49:56.422Z,50.90
2018-11-27T01:51:00.057Z,48.45
2018-11-27T01:52:03.686Z,48.48
2018-11-27T01:53:07.293Z,45.78
2018-11-27T01:54:10.910Z,44.95
2018-11-27T01:55:15.526Z,47.78
2018-11-27T01:56:19.197Z,47.67
2018-11-27T01:57:22.879Z,49.53
2018-11-27T01:58:26.499Z,45.58
2018-11-27T01:59:30.095Z,48.35
2018-11-27T02:00:33.841Z,51.28
2018-11-27T02:01:37.590Z,48.15
2018-11-27T02:02:41.245Z,42.33
2018-11-27T02:03:44.888Z,45.10
2018-11-27T02:04:48.533Z,49.10
2018-11-27T02:05:52.199Z,48.95
2018-11-27T02:06:55.856Z,46.35
2018-11-27T02:07:59.466Z,49.40
2018-11-27T02:09:04.489Z,43.33
2018-11-27T02:10:09.803Z,46.20
2018-11-27T02:11:13.444Z,46.00
2018-11-27T02:12:17.081Z,46.10
2018-11-27T02:13:20.777Z,49.27
2018-11-27T02:14:24.419Z,45.25
2018-11-27T02:15:28.766Z,50.40
2018-11-27T02:16:32.401Z,50.23
2018-11-27T02:17:36.147Z,43.52
2018-11-27T02:18:39.757Z,46.00
2018-11-27T02:19:43.404Z,44.90
2018-11-27T02:20:47.045Z,47.35
2018-11-27T02:21:50.764Z,49.75
2018-11-27T02:22:54.500Z,49.40
2018-11-27T02:23:58.098Z,46.13
2018-11-27T02:25:01.728Z,46.48
2018-11-27T02:26:05.482Z,45.17
2018-11-27T02:27:09.220Z,42.98
2018-11-27T02:28:12.836Z,50.25
2018-11-27T02:29:16.453Z,42.95
2018-11-27T02:30:21.394Z,45.35
2018-11-27T02:31:25.079Z,45.75
2018-11-27T02:32:28.719Z,51.80
2018-11-27T02:33:32.458Z,45.52
2018-11-27T02:34:36.076Z,48.38
2018-11-27T02:35:39.686Z,47.38
2018-11-27T02:36:43.329Z,41.48
2018-11-27T02:37:49.025Z,48.55
2018-11-27T02:38:52.674Z,48.13
2018-11-27T02:39:56.299Z,47.53
2018-11-27T02:40:59.897Z,45.52
2018-11-27T02:42:03.555Z,46.70
2018-11-27T02:43:07.178Z,46.65
2018-11-27T02:44:10.843Z,52.43
2018-11-27T02:45:15.795Z,49.20
2018-11-27T02:46:19.431Z,40.03
2018-11-27T02:47:23.094Z,47.53
2018-11-27T02:48:26.732Z,50.63
2018-11-27T02:49:30.506Z,46.68
2018-11-27T02:50:34.254Z,51.23
2018-11-27T02:51:37.865Z,44.27
2018-11-27T02:52:41.483Z,46.73
2018-11-27T02:53:45.217Z,45.17
2018-11-27T02:54:48.825Z,44.53
2018-11-27T02:55:52.654Z,46.60
2018-11-27T02:56:56.336Z,44.13
2018-11-27T02:58:00.040Z,43.87
2018-11-27T02:59:03.679Z,45.73
2018-11-27T03:00:10.313Z,53.52
2018-11-27T03:01:13.934Z,48.15
2018-11-27T03:02:17.562Z,53.65
2018-11-27T03:03:21.358Z,43.17
2018-11-27T03:04:25.005Z,47.83
2018-11-27T03:05:35.016Z,52.90
2018-11-27T03:06:38.642Z,44.55
2018-11-27T03:07:42.251Z,49.70
2018-11-27T03:08:45.861Z,50.15
2018-11-27T03:09:49.512Z,43.45
2018-11-27T03:10:53.134Z,45.30
2018-11-27T03:11:56.736Z,49.73
2018-11-27T03:13:00.465Z,49.08
2018-11-27T03:14:04.646Z,42.70
2018-11-27T03:15:10.226Z,45.43
2018-11-27T03:16:14.092Z,48.73
2018-11-27T03:17:17.705Z,45.67
2018-11-27T03:18:21.325Z,45.33
2018-11-27T03:19:24.930Z,46.58
2018-11-27T03:20:28.573Z,48.00
2018-11-27T03:21:32.205Z,53.83
2018-11-27T03:22:35.826Z,45.17
2018-11-27T03:23:39.530Z,44.13
2018-11-27T03:24:43.216Z,44.33
2018-11-27T03:25:46.831Z,48.17
2018-11-27T03:26:50.482Z,45.15
2018-11-27T03:27:54.390Z,47.50
2018-11-27T03:28:57.999Z,45.70
2018-11-27T03:30:01.682Z,48.15
2018-11-27T03:31:05.387Z,46.20
2018-11-27T03:32:09.034Z,48.30
2018-11-27T03:33:12.642Z,50.67
2018-11-27T03:34:16.250Z,46.65
2018-11-27T03:35:21.058Z,43.90
2018-11-27T03:36:24.650Z,45.88
2018-11-27T03:37:28.236Z,44.60
2018-11-27T03:38:31.890Z,46.15
2018-11-27T03:39:35.516Z,49.00
2018-11-27T03:40:39.137Z,49.85
2018-11-27T03:41:42.753Z,48.20
2018-11-27T03:42:46.435Z,42.50
2018-11-27T03:43:50.145Z,49.03
2018-11-27T03:44:53.768Z,47.75
2018-11-27T03:45:57.409Z,49.63
2018-11-27T03:47:01.050Z,46.80
2018-11-27T03:48:04.926Z,50.25
2018-11-27T03:49:08.616Z,54.38
2018-11-27T03:50:15.138Z,46.68
2018-11-27T03:51:18.798Z,43.58
2018-11-27T03:52:22.414Z,46.83
2018-11-27T03:53:26.060Z,46.98
2018-11-27T03:54:29.681Z,50.73
2018-11-27T03:55:33.294Z,47.62
2018-11-27T03:56:36.913Z,41.83
2018-11-27T03:57:40.646Z,43.05
2018-11-27T03:58:44.330Z,46.80
2018-11-27T03:59:47.946Z,45.58
2018-11-27T04:00:51.564Z,44.15
2018-11-27T04:01:55.374Z,42.88
2018-11-27T04:03:08.924Z,46.15
2018-11-27T04:04:12.623Z,46.95
2018-11-27T04:05:16.259Z,49.42
2018-11-27T04:06:19.882Z,47.85
2018-11-27T04:07:23.541Z,51.40
2018-11-27T04:08:27.132Z,44.90
2018-11-27T04:09:30.778Z,46.28
2018-11-27T04:10:34.451Z,54.20
2018-11-27T04:11:38.084Z,45.78
2018-11-27T04:12:41.703Z,44.53
2018-11-27T04:13:45.294Z,43.10
2018-11-27T04:14:49.032Z,53.02
2018-11-27T04:15:52.695Z,49.35
2018-11-27T04:16:56.302Z,44.08
2018-11-27T04:17:59.985Z,44.30
2018-11-27T04:19:03.580Z,40.05
2018-11-27T04:20:08.550Z,49.55
2018-11-27T04:21:12.175Z,46.75
2018-11-27T04:22:15.781Z,46.37
2018-11-27T04:23:19.474Z,46.30
2018-11-27T04:24:23.098Z,48.98
2018-11-27T04:25:26.771Z,50.40
2018-11-27T04:26:30.375Z,42.48
2018-11-27T04:27:34.086Z,44.75
2018-11-27T04:28:37.835Z,46.95
2018-11-27T04:29:41.434Z,49.30
2018-11-27T04:30:45.661Z,45.92
2018-11-27T04:31:49.263Z,45.90
2018-11-27T04:32:52.895Z,45.55
2018-11-27T04:33:56.532Z,46.25
2018-11-27T04:35:00.258Z,48.33
2018-11-27T04:36:03.893Z,44.42
2018-11-27T04:37:07.533Z,46.10
2018-11-27T04:38:11.140Z,42.98
2018-11-27T04:39:14.766Z,44.15
2018-11-27T04:40:19.422Z,43.10
2018-11-27T04:41:23.075Z,47.03
2018-11-27T04:42:26.690Z,43.58
2018-11-27T04:43:30.409Z,49.42
2018-11-27T04:44:34.029Z,44.03
2018-11-27T04:45:37.646Z,41.48
2018-11-27T04:46:41.294Z,46.20
2018-11-27T04:47:44.926Z,43.42
2018-11-27T04:48:48.630Z,47.65
2018-11-27T04:49:52.245Z,44.73
2018-11-27T04:50:56.073Z,46.63
2018-11-27T04:51:59.730Z,42.27
2018-11-27T04:53:03.468Z,46.33
2018-11-27T04:54:07.198Z,47.35
2018-11-27T04:55:12.630Z,42.67
2018-11-27T04:56:16.368Z,45.10
2018-11-27T04:57:19.977Z,43.73
2018-11-27T04:58:23.645Z,43.58
2018-11-27T04:59:27.249Z,45.30
2018-11-27T05:00:30.867Z,46.75
2018-11-27T05:01:34.523Z,45.92
2018-11-27T05:02:38.203Z,44.45
2018-11-27T05:03:41.793Z,42.43
2018-11-27T05:04:45.576Z,50.95
2018-11-27T05:05:49.790Z,41.13
2018-11-27T05:06:53.419Z,42.38
2018-11-27T05:07:57.054Z,48.40
2018-11-27T05:09:00.687Z,41.88
2018-11-27T05:10:07.602Z,43.90
2018-11-27T05:11:11.226Z,41.30
2018-11-27T05:12:14.925Z,47.20
2018-11-27T05:13:18.542Z,46.95
2018-11-27T05:14:22.255Z,43.05
2018-11-27T05:15:26.598Z,45.23
2018-11-27T05:16:30.239Z,44.10
2018-11-27T05:17:33.910Z,41.85
2018-11-27T05:18:37.539Z,50.50
2018-11-27T05:19:41.143Z,41.60
2018-11-27T05:20:44.766Z,42.40
2018-11-27T05:21:48.886Z,41.80
2018-11-27T05:22:52.552Z,46.48
2018-11-27T05:23:56.165Z,43.28
2018-11-27T05:24:59.781Z,45.80
2018-11-27T05:26:03.437Z,48.42
2018-11-27T05:27:07.056Z,42.25
2018-11-27T05:28:10.723Z,45.58
2018-11-27T05:30:25.447Z,46.73
2018-11-27T05:31:29.053Z,46.68
2018-11-27T05:32:32.661Z,42.62
2018-11-27T05:33:36.435Z,44.73
2018-11-27T05:34:40.044Z,44.27
2018-11-27T05:35:43.642Z,50.98
2018-11-27T05:36:47.310Z,42.98
2018-11-27T05:37:51.186Z,42.08
2018-11-27T05:38:54.856Z,41.13
2018-11-27T05:39:58.486Z,47.15
2018-11-27T05:41:02.086Z,47.78
2018-11-27T05:42:05.948Z,45.10
2018-11-27T05:43:10.335Z,47.30
2018-11-27T05:44:13.962Z,43.08
2018-11-27T05:45:18.713Z,46.77
2018-11-27T05:46:22.348Z,54.18
2018-11-27T05:47:25.953Z,48.42
2018-11-27T05:48:29.562Z,48.78
2018-11-27T05:49:33.173Z,46.05
2018-11-27T05:50:36.786Z,43.90
2018-11-27T05:51:40.421Z,43.45
2018-11-27T05:52:44.226Z,60.55
2018-11-27T05:53:47.879Z,41.53
2018-11-27T05:54:51.525Z,55.50
2018-11-27T05:55:55.130Z,53.80
2018-11-27T05:56:58.830Z,50.15
2018-11-27T05:58:02.429Z,45.83
2018-11-27T05:59:06.390Z,46.08
2018-11-27T06:00:12.592Z,48.35
2018-11-27T06:01:16.215Z,48.50
2018-11-27T06:02:19.888Z,46.05
2018-11-27T06:03:23.507Z,52.17
2018-11-27T06:04:27.128Z,55.60
2018-11-27T06:05:30.837Z,47.05
2018-11-27T06:06:34.482Z,41.20
2018-11-27T06:07:38.130Z,44.55
2018-11-27T06:08:41.770Z,46.55
2018-11-27T06:09:45.400Z,46.35
2018-11-27T06:10:49.068Z,41.30
2018-11-27T06:11:52.702Z,47.03
2018-11-27T06:12:56.345Z,43.78
2018-11-27T06:13:59.963Z,42.70
2018-11-27T06:15:03.597Z,45.00
2018-11-27T06:16:07.227Z,45.83
2018-11-27T06:17:10.851Z,51.15
2018-11-27T06:18:14.463Z,43.45
2018-11-27T06:19:18.121Z,46.90
2018-11-27T06:20:22.421Z,45.60
2018-11-27T06:21:26.134Z,47.78
2018-11-27T06:22:29.733Z,41.58
2018-11-27T06:23:33.327Z,42.93
2018-11-27T06:24:36.942Z,48.33
2018-11-27T06:25:40.603Z,42.93
2018-11-27T06:26:44.268Z,41.45
2018-11-27T06:27:49.344Z,48.48
2018-11-27T06:28:52.970Z,44.98
2018-11-27T06:29:56.602Z,44.90
2018-11-27T06:31:00.259Z,47.33
2018-11-27T06:32:03.880Z,45.33
2018-11-27T06:33:07.516Z,42.58
2018-11-27T06:34:11.165Z,41.45
2018-11-27T06:35:17.179Z,42.20
2018-11-27T06:36:20.787Z,46.23
2018-11-27T06:37:24.427Z,44.53
2018-11-27T06:38:28.046Z,44.85
2018-11-27T06:39:31.723Z,40.55
2018-11-27T06:40:35.331Z,43.10
2018-11-27T06:41:38.925Z,43.85
2018-11-27T06:42:42.706Z,40.38
2018-11-27T06:43:46.331Z,44.25
2018-11-27T06:44:50.024Z,41.40
2018-11-27T06:45:53.656Z,38.53
2018-11-27T06:46:57.304Z,42.45
2018-11-27T06:48:00.924Z,40.08
2018-11-27T06:49:04.622Z,46.15
2018-11-27T06:50:09.995Z,38.23
2018-11-27T06:51:13.634Z,41.50
2018-11-27T06:52:17.239Z,37.83
2018-11-27T06:53:20.965Z,41.92
2018-11-27T06:54:24.601Z,41.88
2018-11-27T06:55:28.237Z,53.05
2018-11-27T06:56:31.852Z,46.28
2018-11-27T06:57:35.692Z,48.15
2018-11-27T06:58:39.427Z,47.00
2018-11-27T06:59:43.048Z,40.40
2018-11-27T07:00:46.636Z,41.33
2018-11-27T07:01:50.273Z,44.27
2018-11-27T07:02:54.380Z,47.95
2018-11-27T07:03:58.019Z,42.83
2018-11-27T07:05:01.823Z,54.75
2018-11-27T07:06:05.716Z,48.20
2018-11-27T07:07:09.357Z,43.30
2018-11-27T07:08:13.005Z,45.05
2018-11-27T07:09:16.649Z,41.25
2018-11-27T07:10:22.689Z,41.48
2018-11-27T07:11:26.337Z,40.38
2018-11-27T07:12:29.969Z,51.40
2018-11-27T07:13:33.629Z,41.00
2018-11-27T07:14:37.252Z,42.30
2018-11-27T07:15:40.922Z,40.67
2018-11-27T07:16:44.561Z,37.03
2018-11-27T07:17:48.183Z,42.78
2018-11-27T07:18:51.881Z,43.65
2018-11-27T07:19:55.496Z,43.48
2018-11-27T07:20:59.145Z,43.92
2018-11-27T07:22:02.751Z,48.33
2018-11-27T07:23:07.096Z,38.83
2018-11-27T07:24:10.749Z,42.75
2018-11-27T07:25:15.167Z,38.42
2018-11-27T07:26:18.835Z,32.90
2018-11-27T07:27:22.460Z,42.95
2018-11-27T07:28:26.080Z,39.80
2018-11-27T07:29:29.696Z,37.15
2018-11-27T07:30:33.303Z,43.50
2018-11-27T07:31:36.938Z,41.02
2018-11-27T07:32:40.568Z,40.90
2018-11-27T07:33:44.226Z,42.58
2018-11-27T07:34:47.890Z,39.53
2018-11-27T07:35:51.507Z,40.70
2018-11-27T07:36:55.123Z,42.05
2018-11-27T07:37:58.757Z,39.03
2018-11-27T07:39:02.406Z,35.28
2018-11-27T07:40:09.301Z,35.68
2018-11-27T07:41:12.923Z,39.13
2018-11-27T07:42:16.558Z,39.95
2018-11-27T07:43:20.184Z,37.60
2018-11-27T07:44:23.785Z,40.17
2018-11-27T07:45:27.456Z,44.00
2018-11-27T07:46:31.125Z,39.70
2018-11-27T07:47:34.763Z,41.18
2018-11-27T07:48:39.059Z,37.65
2018-11-27T07:49:42.701Z,39.05
2018-11-27T07:50:46.543Z,42.40
2018-11-27T07:51:50.196Z,38.92
2018-11-27T07:52:53.892Z,37.65
2018-11-27T07:53:57.528Z,42.53
2018-11-27T07:55:01.158Z,35.45
2018-11-27T07:56:06.133Z,36.88
2018-11-27T07:57:09.785Z,41.75
2018-11-27T07:58:13.419Z,36.35
2018-11-27T07:59:17.058Z,36.28
2018-11-27T08:00:22.605Z,38.13
2018-11-27T08:01:26.236Z,37.80
2018-11-27T08:02:29.829Z,44.63
2018-11-27T08:03:33.564Z,40.80
2018-11-27T08:04:37.194Z,42.80
2018-11-27T08:05:41.363Z,38.83
2018-11-27T08:06:45.022Z,37.10
2018-11-27T08:07:53.773Z,44.42
2018-11-27T08:08:57.390Z,38.80
2018-11-27T08:10:00.994Z,34.48
2018-11-27T08:11:04.773Z,37.85
2018-11-27T08:12:08.412Z,33.58
2018-11-27T08:13:12.154Z,33.42
2018-11-27T08:14:15.751Z,38.33
2018-11-27T08:15:20.766Z,38.05
2018-11-27T08:16:24.398Z,36.05
2018-11-27T08:17:28.084Z,39.48
2018-11-27T08:18:31.757Z,32.45
2018-11-27T08:19:35.382Z,33.80
2018-11-27T08:20:39.038Z,39.73
2018-11-27T08:21:43.115Z,39.10
2018-11-27T08:22:46.793Z,36.80
2018-11-27T08:23:50.593Z,32.78
2018-11-27T08:24:54.203Z,35.25
2018-11-27T08:25:57.802Z,37.55
2018-11-27T08:27:01.467Z,39.80
2018-11-27T08:28:06.489Z,37.30
2018-11-27T08:29:10.125Z,54.60
2018-11-27T08:30:15.001Z,36.95
2018-11-27T08:31:18.632Z,39.75
2018-11-27T08:32:22.268Z,33.58
2018-11-27T08:33:25.915Z,34.48
2018-11-27T08:34:29.563Z,35.63
2018-11-27T08:35:33.265Z,41.88
2018-11-27T08:36:37.067Z,42.48
2018-11-27T08:37:41.132Z,39.60
2018-11-27T08:38:44.786Z,35.25
2018-11-27T08:39:48.432Z,39.90
2018-11-27T08:40:52.068Z,47.25
2018-11-27T08:41:55.695Z,37.78
2018-11-27T08:42:59.323Z,37.63
2018-11-27T08:44:03.035Z,40.83
2018-11-27T08:45:15.144Z,42.80
2018-11-27T08:46:18.757Z,37.08
2018-11-27T08:47:22.370Z,35.52
2018-11-27T08:48:32.567Z,41.77
2018-11-27T08:49:36.171Z,32.28
2018-11-27T08:50:40.438Z,32.05
2018-11-27T08:51:44.147Z,41.00
2018-11-27T08:52:48.957Z,36.08
2018-11-27T08:53:52.606Z,43.83
2018-11-27T08:54:56.483Z,38.05
2018-11-27T08:56:00.119Z,42.38
2018-11-27T08:57:03.759Z,41.28
2018-11-27T08:58:17.010Z,33.15
2018-11-27T08:59:20.665Z,31.10
2018-11-27T09:00:25.329Z,32.55
2018-11-27T09:01:29.037Z,30.68
2018-11-27T09:02:32.647Z,33.95
2018-11-27T09:03:36.265Z,32.80
2018-11-27T09:04:39.873Z,31.07
2018-11-27T09:05:43.499Z,35.75
2018-11-27T09:06:47.128Z,34.20
2018-11-27T09:07:50.811Z,31.90
2018-11-27T09:08:54.469Z,32.17
2018-11-27T09:09:58.090Z,33.35
2018-11-27T09:11:01.706Z,35.55
2018-11-27T09:12:05.653Z,33.18
2018-11-27T09:13:09.232Z,34.80
2018-11-27T09:14:14.049Z,35.15
2018-11-27T09:15:17.888Z,35.35
2018-11-27T09:16:22.568Z,31.65
2018-11-27T09:17:27.531Z,32.90
2018-11-27T09:18:31.214Z,28.23
2018-11-27T09:19:34.985Z,31.60
2018-11-27T09:20:38.666Z,31.35
2018-11-27T09:21:42.372Z,33.55
2018-11-27T09:22:46.090Z,32.83
2018-11-27T09:23:49.751Z,30.17
2018-11-27T09:24:53.430Z,31.33
2018-11-27T09:25:57.116Z,33.85
2018-11-27T09:27:00.813Z,31.85
2018-11-27T09:28:04.504Z,32.95
2018-11-27T09:29:08.118Z,33.08
2018-11-27T09:30:17.889Z,31.73
2018-11-27T09:31:21.506Z,31.73
2018-11-27T09:32:25.119Z,32.65
2018-11-27T09:33:28.729Z,34.10
2018-11-27T09:34:32.343Z,35.65
2018-11-27T09:35:36.117Z,34.40
2018-11-27T09:36:39.747Z,32.28
2018-11-27T09:37:43.377Z,31.60
2018-11-27T09:38:47.078Z,30.00
2018-11-27T09:39:50.677Z,32.60
2018-11-27T09:40:54.547Z,33.20
2018-11-27T09:41:58.353Z,31.52
2018-11-27T09:43:01.972Z,32.95
2018-11-27T09:44:07.402Z,27.82
2018-11-27T09:45:12.382Z,35.43
2018-11-27T09:46:15.982Z,31.07
2018-11-27T09:47:19.717Z,28.12
2018-11-27T09:48:23.352Z,31.95
2018-11-27T09:49:27.071Z,33.83
2018-11-27T09:50:30.790Z,36.42
2018-11-27T09:51:34.542Z,34.15
2018-11-27T09:52:38.847Z,34.95
2018-11-27T09:53:42.594Z,36.77
2018-11-27T09:54:46.239Z,35.80
2018-11-27T09:55:49.852Z,30.72
2018-11-27T09:56:53.521Z,31.10
2018-11-27T09:57:59.365Z,34.73
2018-11-27T09:59:00.769Z,29.67
2018-11-27T10:00:05.842Z,42.90
2018-11-27T10:01:09.830Z,32.75
2018-11-27T10:02:13.602Z,33.20
2018-11-27T10:03:17.270Z,31.52
2018-11-27T10:04:20.876Z,32.38
2018-11-27T10:05:24.495Z,32.55
2018-11-27T10:06:28.316Z,31.75
2018-11-27T10:07:32.046Z,36.40
2018-11-27T10:08:35.650Z,28.75
2018-11-27T10:09:40.022Z,29.45
2018-11-27T10:10:43.455Z,29.40
2018-11-27T10:11:48.214Z,30.05
2018-11-27T10:12:52.428Z,29.90
2018-11-27T10:13:56.121Z,29.23
2018-11-27T10:14:59.770Z,28.73
2018-11-27T10:16:03.410Z,28.92
2018-11-27T10:17:06.999Z,30.77
2018-11-27T10:18:10.638Z,33.55
2018-11-27T10:19:14.235Z,33.50
2018-11-27T10:20:19.856Z,30.25
2018-11-27T10:21:23.498Z,32.08
2018-11-27T10:22:27.184Z,32.88
2018-11-27T10:23:30.927Z,30.82
2018-11-27T10:24:34.699Z,30.85
2018-11-27T10:25:38.352Z,28.83
2018-11-27T10:26:41.994Z,31.17
2018-11-27T10:27:45.678Z,29.75
2018-11-27T10:28:49.348Z,28.00
2018-11-27T10:29:52.977Z,31.15
2018-11-27T10:30:56.650Z,28.57
2018-11-27T10:32:00.313Z,29.92
2018-11-27T10:33:05.592Z,29.55
2018-11-27T10:34:09.223Z,26.73
2018-11-27T10:35:32.215Z,29.15
2018-11-27T10:36:35.820Z,27.55
2018-11-27T10:37:39.432Z,28.40
2018-11-27T10:38:43.152Z,29.12
2018-11-27T10:39:46.787Z,27.10
2018-11-27T10:40:50.388Z,31.25
2018-11-27T10:41:54.010Z,29.82
2018-11-27T10:42:57.654Z,28.32
2018-11-27T10:44:01.236Z,34.98
2018-11-27T10:45:07.024Z,28.80
2018-11-27T10:46:10.743Z,27.73
2018-11-27T10:47:14.316Z,29.95
2018-11-27T10:48:17.993Z,33.40
2018-11-27T10:49:21.619Z,29.00
2018-11-27T10:50:25.454Z,29.72
2018-11-27T10:51:29.206Z,29.52
2018-11-27T10:52:32.850Z,32.23
2018-11-27T10:53:36.456Z,27.40
2018-11-27T10:54:40.132Z,29.10
2018-11-27T10:55:43.832Z,32.63
2018-11-27T10:56:47.429Z,30.45
2018-11-27T10:57:51.074Z,31.05
2018-11-27T10:58:54.758Z,30.48
2018-11-27T10:59:58.362Z,30.40
2018-11-27T11:01:08.822Z,32.83
2018-11-27T11:02:17.860Z,32.08
2018-11-27T11:03:24.923Z,29.72
2018-11-27T11:04:28.554Z,28.38
2018-11-27T11:05:34.200Z,34.85
2018-11-27T11:06:37.810Z,28.25
2018-11-27T11:07:41.406Z,29.15
2018-11-27T11:08:45.017Z,32.48
2018-11-27T11:09:48.607Z,27.58
2018-11-27T11:10:52.270Z,34.27
2018-11-27T11:11:59.225Z,30.95
2018-11-27T11:12:59.525Z,34.95
2018-11-27T11:14:03.152Z,35.55
2018-11-27T11:15:07.548Z,32.35
2018-11-27T11:16:11.177Z,32.67
2018-11-27T11:17:14.808Z,37.33
2018-11-27T11:18:18.518Z,29.82
2018-11-27T11:19:22.144Z,30.65
2018-11-27T11:20:25.883Z,34.88
2018-11-27T11:21:29.467Z,33.28
2018-11-27T11:22:33.065Z,33.53
2018-11-27T11:23:36.779Z,33.63
2018-11-27T11:24:40.370Z,30.02
2018-11-27T11:25:44.595Z,31.65
2018-11-27T11:26:47.629Z,27.62
2018-11-27T11:27:54.872Z,30.85
2018-11-27T11:28:58.528Z,30.35
2018-11-27T11:30:02.186Z,31.27
2018-11-27T11:31:06.736Z,33.65
2018-11-27T11:32:10.141Z,27.80
2018-11-27T11:33:13.758Z,32.28
2018-11-27T11:34:17.387Z,30.60
2018-11-27T11:35:21.066Z,30.50
2018-11-27T11:36:24.685Z,32.15
2018-11-27T11:37:28.307Z,27.90
2018-11-27T11:38:31.987Z,29.65
2018-11-27T11:39:35.593Z,30.95
2018-11-27T11:40:39.204Z,29.50
2018-11-27T11:41:42.944Z,30.30
2018-11-27T11:42:47.036Z,31.57
2018-11-27T11:43:50.662Z,29.82
2018-11-27T11:44:54.398Z,32.78
2018-11-27T11:45:58.036Z,33.45
2018-11-27T11:47:01.904Z,30.95
2018-11-27T11:48:05.894Z,31.65
2018-11-27T11:49:09.510Z,34.38
2018-11-27T11:50:15.356Z,32.10
2018-11-27T11:51:19.633Z,33.10
2018-11-27T11:52:23.236Z,34.38
2018-11-27T11:53:26.991Z,31.30
2018-11-27T11:54:30.713Z,31.60
2018-11-27T11:55:34.331Z,28.98
2018-11-27T11:56:37.941Z,32.00
2018-11-27T11:57:42.129Z,31.20
2018-11-27T11:58:45.758Z,30.50
2018-11-27T11:59:49.375Z,34.58
2018-11-27T12:00:54.198Z,31.52
2018-11-27T12:01:57.827Z,32.53
2018-11-27T12:03:01.645Z,37.45
2018-11-27T12:04:05.590Z,36.58
2018-11-27T12:05:10.253Z,32.23
2018-11-27T12:06:13.878Z,31.10
2018-11-27T12:07:17.556Z,32.40
2018-11-27T12:08:21.348Z,34.40
2018-11-27T12:09:24.971Z,31.93
2018-11-27T12:10:28.604Z,31.07
2018-11-27T12:11:32.359Z,30.80
2018-11-27T12:12:35.954Z,33.75
2018-11-27T12:13:39.571Z,34.18
2018-11-27T12:14:43.195Z,31.02
2018-11-27T12:15:46.827Z,32.45
2018-11-27T12:16:50.453Z,30.50
2018-11-27T12:17:54.083Z,31.90
2018-11-27T12:18:57.711Z,29.40
2018-11-27T12:20:01.321Z,30.62
2018-11-27T12:21:04.958Z,30.43
2018-11-27T12:22:08.618Z,33.40
2018-11-27T12:23:12.626Z,31.62
2018-11-27T12:24:16.254Z,30.37
2018-11-27T12:25:24.240Z,30.40
2018-11-27T12:26:23.671Z,32.25
2018-11-27T12:27:27.301Z,32.75
2018-11-27T12:28:30.898Z,31.23
2018-11-27T12:29:34.549Z,33.10
2018-11-27T12:30:38.187Z,27.10
2018-11-27T12:31:41.875Z,32.53
2018-11-27T12:32:45.523Z,36.15
2018-11-27T12:33:49.356Z,28.38
2018-11-27T12:34:52.999Z,31.62
2018-11-27T12:35:56.698Z,27.90
2018-11-27T12:37:00.311Z,30.72
2018-11-27T12:38:04.036Z,29.72
2018-11-27T12:39:08.319Z,33.13
2018-11-27T12:40:13.022Z,30.27
2018-11-27T12:41:16.629Z,28.55
2018-11-27T12:42:20.339Z,33.15
2018-11-27T12:43:23.957Z,29.57
2018-11-27T12:44:27.582Z,29.60
2018-11-27T12:45:32.192Z,33.30
2018-11-27T12:46:35.801Z,31.07
2018-11-27T12:47:39.582Z,31.00
2018-11-27T12:48:43.163Z,34.88
2018-11-27T12:49:46.766Z,30.20
2018-11-27T12:50:50.440Z,35.15
2018-11-27T12:51:54.028Z,36.33
2018-11-27T12:52:57.633Z,34.60
2018-11-27T12:54:08.039Z,37.63
2018-11-27T12:55:13.043Z,43.73
2018-11-27T12:56:16.677Z,36.80
2018-11-27T12:57:20.294Z,35.28
2018-11-27T12:58:23.886Z,30.23
2018-11-27T12:59:27.610Z,30.10
2018-11-27T13:00:31.246Z,29.20
2018-11-27T13:01:34.928Z,33.73
2018-11-27T13:02:38.622Z,33.83
2018-11-27T13:03:42.232Z,36.80
2018-11-27T13:04:45.863Z,28.98
2018-11-27T13:05:49.525Z,31.55
2018-11-27T13:06:53.125Z,34.70
2018-11-27T13:08:00.311Z,32.55
2018-11-27T13:09:07.057Z,32.48
2018-11-27T13:10:13.685Z,30.52
2018-11-27T13:11:17.327Z,30.37
2018-11-27T13:12:20.945Z,29.82
2018-11-27T13:13:24.565Z,31.52
2018-11-27T13:14:28.182Z,28.10
2018-11-27T13:15:31.790Z,43.13
2018-11-27T13:16:35.371Z,29.67
2018-11-27T13:17:39.022Z,31.82
2018-11-27T13:18:42.581Z,29.72
2018-11-27T13:19:46.242Z,30.65
2018-11-27T13:20:49.859Z,31.40
2018-11-27T13:21:53.459Z,31.10
2018-11-27T13:22:57.053Z,36.85
2018-11-27T13:24:00.827Z,32.45
2018-11-27T13:25:05.946Z,32.10
2018-11-27T13:26:09.600Z,32.08
2018-11-27T13:27:13.257Z,41.25
2018-11-27T13:28:16.831Z,32.05
2018-11-27T13:29:20.454Z,31.50
2018-11-27T13:30:26.436Z,36.75
2018-11-27T13:31:30.891Z,33.10
2018-11-27T13:32:34.528Z,29.42
2018-11-27T13:33:58.127Z,34.45
2018-11-27T13:35:01.707Z,29.45
2018-11-27T13:36:06.670Z,27.80
2018-11-27T13:37:10.390Z,27.37
2018-11-27T13:38:14.047Z,27.87
2018-11-27T13:39:29.929Z,33.15
2018-11-27T13:40:33.571Z,30.00
2018-11-27T13:41:37.235Z,32.90
2018-11-27T13:42:41.297Z,37.28
2018-11-27T13:43:44.893Z,32.17
2018-11-27T13:44:48.495Z,31.97